Time;durP1;ratioP1;P1;durP2;ratioP2;P2;SDS_P1;SDS_P2;PMS_P1;PMS_P2;Temp;Humidity;BMP_temperature;BMP_pressure;BME280_temperature;BME280_humidity;BME280_pressure;Samples;Min_cycle;Max_cycle;Signal;HPM_P1;HPM_P2
2024/04/17 00:02:12;;;;;;;0.50;0.40;;;;;;;;;;5292614;26;20013;-59
2024/04/17 00:04:39;;;;;;;0.50;0.50;;;;;;;;;;5291939;26;20103;-62
2024/04/17 00:07:06;;;;;;;0.73;0.30;;;;;;;;;;5290139;26;20084;-58
2024/04/17 00:09:33;;;;;;;0.30;0.30;;;;;;;;;;5289484;26;20021;-59
2024/04/17 00:11:59;;;;;;;0.40;0.40;;;;;;;;;;5285817;26;20021;-59
2024/04/17 00:14:26;;;;;;;0.80;0.40;;;;;;;;;;5288325;26;20013;-62
2024/04/17 00:16:53;;;;;;;0.50;0.50;;;;;;;;;;5286435;26;20005;-59
2024/04/17 00:19:19;;;;;;;0.28;0.28;;;;;;;;;;5286048;26;20071;-60
2024/04/17 00:21:46;;;;;;;0.55;0.30;;;;;;;;;;5288194;26;20219;-59
2024/04/17 00:24:12;;;;;;;0.52;0.40;;;;;;;;;;5288660;26;20015;-64
2024/04/17 00:26:39;;;;;;;0.47;0.32;;;;;;;;;;5263967;26;20645;-61
2024/04/17 00:29:06;;;;;;;0.45;0.40;;;;;;;;;;5285470;26;20024;-59
2024/04/17 00:31:32;;;;;;;0.30;0.30;;;;;;;;;;5287502;26;20006;-61
2024/04/17 00:33:59;;;;;;;0.50;0.35;;;;;;;;;;5287073;26;20008;-59
2024/04/17 00:36:26;;;;;;;0.32;0.30;;;;;;;;;;5285429;26;20251;-61
2024/04/17 00:38:52;;;;;;;0.57;0.57;;;;;;;;;;5278234;26;20056;-60
2024/04/17 00:41:19;;;;;;;0.95;0.28;;;;;;;;;;5287958;26;20013;-58
2024/04/17 00:43:46;;;;;;;2.35;0.40;;;;;;;;;;5284243;26;20064;-63
2024/04/17 00:46:12;;;;;;;0.90;0.25;;;;;;;;;;5284607;26;20072;-62
2024/04/17 00:48:39;;;;;;;0.60;0.60;;;;;;;;;;5287033;26;20001;-57
2024/04/17 00:51:06;;;;;;;0.50;0.47;;;;;;;;;;5275483;26;20370;-62
2024/04/17 00:53:33;;;;;;;0.50;0.40;;;;;;;;;;5292560;26;20016;-57
2024/04/17 00:56:00;;;;;;;1.00;0.90;;;;;;;;;;5292150;26;20364;-63
2024/04/17 00:58:27;;;;;;;1.77;0.73;;;;;;;;;;5292510;26;20084;-62
2024/04/17 01:00:54;;;;;;;0.80;0.55;;;;;;;;;;5292245;26;20013;-58
2024/04/17 01:03:21;;;;;;;0.40;0.40;;;;;;;;;;5289572;26;20005;-59
2024/04/17 01:05:49;;;;;;;1.35;0.70;;;;;;;;;;5288363;26;20012;-57
2024/04/17 01:08:16;;;;;;;1.13;1.02;;;;;;;;;;5291804;26;20009;-56
2024/04/17 01:10:43;;;;;;;0.47;0.45;;;;;;;;;;5289483;26;20048;-59
2024/04/17 01:13:10;;;;;;;0.47;0.45;;;;;;;;;;5290497;26;20435;-55
2024/04/17 01:15:37;;;;;;;2.25;0.90;;;;;;;;;;5290453;26;20001;-56
2024/04/17 01:18:04;;;;;;;1.08;0.93;;;;;;;;;;5290820;26;20053;-58
2024/04/17 01:20:31;;;;;;;0.85;0.75;;;;;;;;;;5290121;26;20001;-58
2024/04/17 01:22:58;;;;;;;0.82;0.82;;;;;;;;;;5292547;26;20018;-58
2024/04/17 01:25:25;;;;;;;2.15;0.90;;;;;;;;;;5287990;26;20566;-56
2024/04/17 01:27:51;;;;;;;0.93;0.63;;;;;;;;;;5286960;26;20020;-57
2024/04/17 01:30:18;;;;;;;1.30;1.02;;;;;;;;;;5288740;26;20013;-57
2024/04/17 01:32:45;;;;;;;1.25;1.00;;;;;;;;;;5288868;26;19998;-56
2024/04/17 01:35:31;;;;;;;1.30;1.20;;;;;;;;;;5285547;26;20138;-56
2024/04/17 01:37:58;;;;;;;2.83;1.10;;;;;;;;;;5286865;27;20006;-57
2024/04/17 01:40:25;;;;;;;1.10;1.00;;;;;;;;;;5284678;26;20009;-56
2024/04/17 01:42:51;;;;;;;1.23;0.80;;;;;;;;;;5286882;27;20082;-57
2024/04/17 01:45:18;;;;;;;0.73;0.73;;;;;;;;;;5287512;26;20019;-58
2024/04/17 01:47:44;;;;;;;1.05;0.90;;;;;;;;;;5285724;27;20053;-57
2024/04/17 01:50:11;;;;;;;1.40;1.15;;;;;;;;;;5284432;26;20683;-58
2024/04/17 01:52:38;;;;;;;1.33;1.17;;;;;;;;;;5286198;27;20009;-54
2024/04/17 01:55:06;;;;;;;1.13;0.88;;;;;;;;;;5285845;26;20013;-57
2024/04/17 01:57:32;;;;;;;2.20;1.25;;;;;;;;;;5286313;27;20010;-59
2024/04/17 01:59:59;;;;;;;1.60;1.08;;;;;;;;;;5283839;26;20025;-58
2024/04/17 02:02:26;;;;;;;1.77;1.13;;;;;;;;;;5286114;26;22508;-54
2024/04/17 02:04:52;;;;;;;1.58;1.10;;;;;;;;;;5257043;26;20075;-52
2024/04/17 02:07:19;;;;;;;1.67;1.27;;;;;;;;;;5309613;26;20021;-56
2024/04/17 02:09:46;;;;;;;3.35;1.63;;;;;;;;;;5289722;26;20012;-61
2024/04/17 02:12:12;;;;;;;1.30;1.10;;;;;;;;;;5291341;26;20342;-60
2024/04/17 02:14:39;;;;;;;0.73;0.73;;;;;;;;;;5288035;26;20002;-57
2024/04/17 02:17:06;;;;;;;2.47;1.20;;;;;;;;;;5279943;26;20087;-57
2024/04/17 02:19:32;;;;;;;0.68;0.68;;;;;;;;;;5286556;26;20021;-58
2024/04/17 02:21:59;;;;;;;1.00;0.80;;;;;;;;;;5289475;26;20437;-56
2024/04/17 02:24:25;;;;;;;1.67;0.80;;;;;;;;;;5291445;26;20009;-54
2024/04/17 02:26:52;;;;;;;1.05;0.70;;;;;;;;;;5287098;26;20002;-59
2024/04/17 02:29:19;;;;;;;1.15;0.75;;;;;;;;;;5290041;26;20009;-58
2024/04/17 02:31:45;;;;;;;0.93;0.68;;;;;;;;;;5291633;26;20144;-55
2024/04/17 02:34:12;;;;;;;0.40;0.40;;;;;;;;;;5291207;26;20010;-57
2024/04/17 02:36:58;;;;;;;1.13;0.50;;;;;;;;;;5322159;26;20008;-58
2024/04/17 02:39:25;;;;;;;0.50;0.43;;;;;;;;;;5321686;26;20001;-56
2024/04/17 02:41:52;;;;;;;0.47;0.40;;;;;;;;;;5323601;26;20001;-58
2024/04/17 02:44:18;;;;;;;0.70;0.50;;;;;;;;;;5322259;26;20923;-57
2024/04/17 02:46:46;;;;;;;0.43;0.43;;;;;;;;;;5321820;26;20871;-60
2024/04/17 02:49:12;;;;;;;0.43;0.40;;;;;;;;;;5293206;26;19993;-56
2024/04/17 02:51:39;;;;;;;0.50;0.50;;;;;;;;;;5321496;26;20134;-58
2024/04/17 02:54:06;;;;;;;0.50;0.50;;;;;;;;;;5322392;26;20012;-55
2024/04/17 02:56:32;;;;;;;0.80;0.50;;;;;;;;;;5319293;26;20019;-55
2024/04/17 02:58:59;;;;;;;0.40;0.40;;;;;;;;;;5321591;26;19996;-52
2024/04/17 03:01:25;;;;;;;5.13;0.77;;;;;;;;;;5297958;26;20017;-55
2024/04/17 03:03:52;;;;;;;0.30;0.25;;;;;;;;;;5321937;26;20039;-56
2024/04/17 03:06:19;;;;;;;0.40;0.40;;;;;;;;;;5322259;26;20012;-56
2024/04/17 03:08:49;;;;;;;0.40;0.32;;;;;;;;;;5296976;26;20002;-55
2024/04/17 03:11:15;;;;;;;0.28;0.28;;;;;;;;;;5289633;26;20771;-58
2024/04/17 03:13:42;;;;;;;0.28;0.28;;;;;;;;;;5291122;26;20020;-56
2024/04/17 03:16:08;;;;;;;0.30;0.30;;;;;;;;;;5286933;26;20017;-55
2024/04/17 03:18:36;;;;;;;0.28;0.28;;;;;;;;;;5290804;26;20002;-58
2024/04/17 03:21:03;;;;;;;1.13;0.30;;;;;;;;;;5291707;26;20025;-62
2024/04/17 03:23:30;;;;;;;0.20;0.20;;;;;;;;;;5292637;26;20070;-56
2024/04/17 03:25:57;;;;;;;0.45;0.32;;;;;;;;;;5294457;26;20013;-58
2024/04/17 03:28:23;;;;;;;0.57;0.20;;;;;;;;;;5299030;26;20060;-59
2024/04/17 03:30:50;;;;;;;0.15;0.15;;;;;;;;;;5290282;26;20001;-56
2024/04/17 03:33:16;;;;;;;0.20;0.20;;;;;;;;;;5290077;26;20053;-57
2024/04/17 03:35:43;;;;;;;0.20;0.20;;;;;;;;;;5296500;26;20076;-59
2024/04/17 03:38:10;;;;;;;0.22;0.22;;;;;;;;;;5294703;26;20009;-56
2024/04/17 03:40:37;;;;;;;0.30;0.30;;;;;;;;;;5287262;26;20083;-59
2024/04/17 03:43:03;;;;;;;0.10;0.10;;;;;;;;;;5294805;26;20075;-60
2024/04/17 03:45:30;;;;;;;0.15;0.15;;;;;;;;;;5305767;26;20068;-56
2024/04/17 03:47:56;;;;;;;0.20;0.10;;;;;;;;;;5292375;26;20036;-57
2024/04/17 03:50:23;;;;;;;0.20;0.20;;;;;;;;;;5287593;26;19997;-59
2024/04/17 03:52:50;;;;;;;0.32;0.30;;;;;;;;;;5294217;26;20041;-58
2024/04/17 03:55:16;;;;;;;0.45;0.32;;;;;;;;;;5295188;26;20009;-58
2024/04/17 03:57:43;;;;;;;0.20;0.20;;;;;;;;;;5294416;26;20005;-58
2024/04/17 04:00:10;;;;;;;0.20;0.20;;;;;;;;;;5294513;26;20009;-58
2024/04/17 04:02:36;;;;;;;0.10;0.10;;;;;;;;;;5293576;26;20001;-60
2024/04/17 04:05:03;;;;;;;0.25;0.25;;;;;;;;;;5296470;26;20048;-57
2024/04/17 04:07:29;;;;;;;0.15;0.15;;;;;;;;;;5294953;26;20089;-58
2024/04/17 04:09:56;;;;;;;0.20;0.20;;;;;;;;;;5294242;26;20020;-60
2024/04/17 04:12:23;;;;;;;1.10;0.25;;;;;;;;;;5296489;26;20020;-54
2024/04/17 04:14:50;;;;;;;0.20;0.20;;;;;;;;;;5296315;26;20010;-61
2024/04/17 04:17:16;;;;;;;0.20;0.15;;;;;;;;;;5289563;26;20001;-57
2024/04/17 04:19:43;;;;;;;0.20;0.20;;;;;;;;;;5292719;26;21570;-61
2024/04/17 04:22:10;;;;;;;0.30;0.30;;;;;;;;;;5299620;26;20321;-60
2024/04/17 04:24:37;;;;;;;0.30;0.30;;;;;;;;;;5294793;26;19994;-58
2024/04/17 04:27:03;;;;;;;0.10;0.10;;;;;;;;;;5293783;26;21250;-60
2024/04/17 04:29:30;;;;;;;0.20;0.20;;;;;;;;;;5295137;26;20458;-59
2024/04/17 04:31:57;;;;;;;0.10;0.10;;;;;;;;;;5294901;26;21310;-59
2024/04/17 04:34:23;;;;;;;0.40;0.22;;;;;;;;;;5295606;26;20019;-59
2024/04/17 04:36:51;;;;;;;0.25;0.25;;;;;;;;;;5304987;26;20052;-60
2024/04/17 04:39:18;;;;;;;0.20;0.20;;;;;;;;;;5292654;26;20005;-65
2024/04/17 04:41:45;;;;;;;0.20;0.20;;;;;;;;;;5292486;26;20002;-57
2024/04/17 04:44:11;;;;;;;0.20;0.20;;;;;;;;;;5292875;26;19998;-58
2024/04/17 04:46:38;;;;;;;0.30;0.30;;;;;;;;;;5274972;26;20008;-58
2024/04/17 04:49:05;;;;;;;0.10;0.10;;;;;;;;;;5291190;26;20508;-61
2024/04/17 04:51:31;;;;;;;0.10;0.10;;;;;;;;;;5278575;26;20355;-58
2024/04/17 04:53:58;;;;;;;0.15;0.15;;;;;;;;;;5283505;26;20117;-60
2024/04/17 04:56:25;;;;;;;0.15;0.15;;;;;;;;;;5290676;26;20556;-61
2024/04/17 04:58:52;;;;;;;0.10;0.10;;;;;;;;;;5291839;26;20017;-59
2024/04/17 05:01:18;;;;;;;0.10;0.10;;;;;;;;;;5293655;26;20016;-62
2024/04/17 05:03:45;;;;;;;0.10;0.10;;;;;;;;;;5293601;26;20001;-56
2024/04/17 05:06:11;;;;;;;0.17;0.17;;;;;;;;;;5289751;26;20009;-57
2024/04/17 05:08:39;;;;;;;0.20;0.20;;;;;;;;;;5294968;26;20658;-57
2024/04/17 05:11:10;;;;;;;0.20;0.20;;;;;;;;;;5293526;26;20001;-62
2024/04/17 05:13:36;;;;;;;0.15;0.15;;;;;;;;;;5294587;26;20005;-58
2024/04/17 05:16:03;;;;;;;0.20;0.15;;;;;;;;;;5295701;26;20001;-59
2024/04/17 05:18:30;;;;;;;0.30;0.10;;;;;;;;;;5291771;26;20006;-61
2024/04/17 05:20:56;;;;;;;0.10;0.10;;;;;;;;;;5293419;26;21064;-61
2024/04/17 05:23:24;;;;;;;0.10;0.10;;;;;;;;;;5283538;26;19993;-59
2024/04/17 05:25:50;;;;;;;0.10;0.10;;;;;;;;;;5294624;26;20020;-64
2024/04/17 05:28:17;;;;;;;0.20;0.20;;;;;;;;;;5281486;26;19997;-59
2024/04/17 05:30:43;;;;;;;0.20;0.20;;;;;;;;;;5297841;26;20013;-59
2024/04/17 05:33:11;;;;;;;0.45;0.22;;;;;;;;;;5300907;26;20002;-58
2024/04/17 05:35:38;;;;;;;0.50;0.20;;;;;;;;;;5288551;26;20017;-58
2024/04/17 05:38:05;;;;;;;0.17;0.17;;;;;;;;;;5303392;26;20347;-58
2024/04/17 05:40:32;;;;;;;0.20;0.20;;;;;;;;;;5275108;26;20036;-60
2024/04/17 05:42:59;;;;;;;0.10;0.10;;;;;;;;;;5302540;26;20016;-59
2024/04/17 05:45:26;;;;;;;0.10;0.10;;;;;;;;;;5290782;26;20009;-56
2024/04/17 05:47:52;;;;;;;0.20;0.20;;;;;;;;;;5291008;26;20477;-59
2024/04/17 05:50:19;;;;;;;0.20;0.20;;;;;;;;;;5289627;26;20005;-60
2024/04/17 05:52:47;;;;;;;0.25;0.10;;;;;;;;;;5289549;26;20370;-59
2024/04/17 05:55:14;;;;;;;0.10;0.10;;;;;;;;;;5297097;26;20017;-56
2024/04/17 05:57:40;;;;;;;0.15;0.15;;;;;;;;;;5293280;26;20049;-59
2024/04/17 06:00:27;;;;;;;0.40;0.28;;;;;;;;;;5310946;26;20011;-57
2024/04/17 06:02:53;;;;;;;0.77;0.30;;;;;;;;;;5285338;26;20035;-57
2024/04/17 06:05:20;;;;;;;0.25;0.20;;;;;;;;;;5327536;26;20024;-59
2024/04/17 06:07:47;;;;;;;0.30;0.20;;;;;;;;;;5324751;26;20398;-60
2024/04/17 06:10:13;;;;;;;0.20;0.20;;;;;;;;;;5294960;26;19997;-58
2024/04/17 06:12:40;;;;;;;0.20;0.20;;;;;;;;;;5325258;26;20069;-60
2024/04/17 06:15:07;;;;;;;0.68;0.68;;;;;;;;;;5325668;26;20028;-61
2024/04/17 06:17:33;;;;;;;0.20;0.10;;;;;;;;;;5326323;26;20029;-60
2024/04/17 06:20:00;;;;;;;1.02;0.20;;;;;;;;;;5324793;26;20060;-59
2024/04/17 06:22:26;;;;;;;0.08;0.08;;;;;;;;;;5325949;26;20470;-57
2024/04/17 06:24:54;;;;;;;0.10;0.10;;;;;;;;;;5326284;26;20446;-58
2024/04/17 06:27:21;;;;;;;0.10;0.10;;;;;;;;;;5323350;26;20135;-60
2024/04/17 06:29:48;;;;;;;0.30;0.30;;;;;;;;;;5324235;26;19997;-59
2024/04/17 06:32:15;;;;;;;0.20;0.10;;;;;;;;;;5325052;26;20029;-59
2024/04/17 06:34:41;;;;;;;0.10;0.10;;;;;;;;;;5324410;26;20663;-59
2024/04/17 06:37:08;;;;;;;0.25;0.25;;;;;;;;;;5318653;26;20021;-61
2024/04/17 06:39:36;;;;;;;0.10;0.10;;;;;;;;;;5292610;26;19998;-58
2024/04/17 06:42:02;;;;;;;0.20;0.20;;;;;;;;;;5292796;26;20029;-57
2024/04/17 06:44:29;;;;;;;0.10;0.10;;;;;;;;;;5293366;26;20009;-58
2024/04/17 06:46:56;;;;;;;0.20;0.20;;;;;;;;;;5293754;26;20017;-59
2024/04/17 06:49:22;;;;;;;0.10;0.10;;;;;;;;;;5292704;26;20010;-62
2024/04/17 06:51:49;;;;;;;0.20;0.20;;;;;;;;;;5293589;26;20041;-58
2024/04/17 06:54:16;;;;;;;0.10;0.10;;;;;;;;;;5295598;26;19998;-57
2024/04/17 06:56:42;;;;;;;0.10;0.10;;;;;;;;;;5294290;26;20564;-58
2024/04/17 06:59:09;;;;;;;0.20;0.20;;;;;;;;;;5295874;26;20038;-56
2024/04/17 07:01:36;;;;;;;0.22;0.22;;;;;;;;;;5296305;26;20016;-57
2024/04/17 07:04:04;;;;;;;0.35;0.20;;;;;;;;;;5294344;26;20005;-58
2024/04/17 07:06:30;;;;;;;0.15;0.10;;;;;;;;;;5293077;26;19998;-57
2024/04/17 07:08:57;;;;;;;0.20;0.20;;;;;;;;;;5291334;26;20145;-59
2024/04/17 07:11:23;;;;;;;0.47;0.20;;;;;;;;;;5291505;26;20053;-59
2024/04/17 07:13:50;;;;;;;0.10;0.10;;;;;;;;;;5295584;26;20013;-58
2024/04/17 07:16:18;;;;;;;0.85;0.20;;;;;;;;;;5296616;26;20005;-56
2024/04/17 07:18:46;;;;;;;1.77;0.50;;;;;;;;;;5291138;26;20014;-58
2024/04/17 07:21:12;;;;;;;0.13;0.13;;;;;;;;;;5293143;26;20001;-58
2024/04/17 07:23:39;;;;;;;0.30;0.28;;;;;;;;;;5294758;26;20001;-58
2024/04/17 07:26:05;;;;;;;0.10;0.10;;;;;;;;;;5297659;26;20001;-58
2024/04/17 07:28:32;;;;;;;0.30;0.20;;;;;;;;;;5295142;26;20012;-60
2024/04/17 07:30:59;;;;;;;0.57;0.00;;;;;;;;;;5295111;26;20066;-58
2024/04/17 07:33:25;;;;;;;0.10;0.10;;;;;;;;;;5293623;26;20012;-59
2024/04/17 07:35:58;;;;;;;0.10;0.10;;;;;;;;;;5294409;26;20021;-59
2024/04/17 07:38:25;;;;;;;0.35;0.30;;;;;;;;;;5293640;26;20026;-62
2024/04/17 07:41:01;;;;;;;0.13;0.13;;;;;;;;;;5294927;26;20010;-59
2024/04/17 07:43:31;;;;;;;0.13;0.13;;;;;;;;;;5293929;26;19998;-58
2024/04/17 07:45:58;;;;;;;0.20;0.20;;;;;;;;;;5267742;26;19997;-58
2024/04/17 07:48:25;;;;;;;0.20;0.17;;;;;;;;;;5291991;26;20021;-57
2024/04/17 07:50:52;;;;;;;1.60;0.20;;;;;;;;;;5293989;26;20443;-59
2024/04/17 07:53:19;;;;;;;0.10;0.10;;;;;;;;;;5293545;26;20029;-56
2024/04/17 07:55:45;;;;;;;0.85;0.28;;;;;;;;;;5293581;26;20016;-59
2024/04/17 07:58:12;;;;;;;0.20;0.20;;;;;;;;;;5294043;26;20008;-62
2024/04/17 08:00:39;;;;;;;0.25;0.25;;;;;;;;;;5290126;26;20015;-59
2024/04/17 08:03:06;;;;;;;0.30;0.20;;;;;;;;;;5296068;26;20100;-58
2024/04/17 08:05:33;;;;;;;0.40;0.30;;;;;;;;;;5293270;26;20013;-60
2024/04/17 08:07:59;;;;;;;0.30;0.17;;;;;;;;;;5304742;26;20013;-61
2024/04/17 08:10:26;;;;;;;0.40;0.40;;;;;;;;;;5299872;26;20041;-59
2024/04/17 08:12:58;;;;;;;0.20;0.20;;;;;;;;;;5298438;26;20009;-59
2024/04/17 08:15:24;;;;;;;;;;;;;;;;;;5298664;26;20012;-58
2024/04/17 08:17:51;;;;;;;1.75;0.13;;;;;;;;;;5308258;26;22510;-59
2024/04/17 08:20:17;;;;;;;1.23;0.25;;;;;;;;;;5301930;26;20034;-60
2024/04/17 08:22:44;;;;;;;0.30;0.30;;;;;;;;;;5295491;26;20040;-58
2024/04/17 08:25:10;;;;;;;0.20;0.20;;;;;;;;;;5294831;26;20197;-59
2024/04/17 08:27:37;;;;;;;0.30;0.20;;;;;;;;;;5292962;26;20021;-59
2024/04/17 08:30:04;;;;;;;0.10;0.10;;;;;;;;;;5290485;26;20009;-61
2024/04/17 08:32:30;;;;;;;0.40;0.25;;;;;;;;;;5292065;26;20009;-56
2024/04/17 08:34:57;;;;;;;0.10;0.10;;;;;;;;;;5290365;26;20424;-59
2024/04/17 08:37:24;;;;;;;0.28;0.28;;;;;;;;;;5277833;26;20053;-58
2024/04/17 08:39:50;;;;;;;0.43;0.20;;;;;;;;;;5318136;26;20002;-62
2024/04/17 08:42:23;;;;;;;0.20;0.20;;;;;;;;;;5296003;26;20049;-61
2024/04/17 08:44:51;;;;;;;0.28;0.20;;;;;;;;;;5292302;26;20095;-58
2024/04/17 08:47:19;;;;;;;0.30;0.30;;;;;;;;;;5282012;26;20002;-59
2024/04/17 08:49:46;;;;;;;0.10;0.10;;;;;;;;;;5291013;26;20009;-62
2024/04/17 08:52:13;;;;;;;0.10;0.10;;;;;;;;;;5293131;26;20006;-60
2024/04/17 08:54:43;;;;;;;0.20;0.20;;;;;;;;;;5292711;26;20012;-61
2024/04/17 08:57:11;;;;;;;0.10;0.10;;;;;;;;;;5294628;26;19997;-62
2024/04/17 08:59:37;;;;;;;0.77;0.40;;;;;;;;;;5293456;26;20060;-57
2024/04/17 09:02:04;;;;;;;0.20;0.10;;;;;;;;;;5294272;26;20001;-59
2024/04/17 09:04:31;;;;;;;1.30;0.40;;;;;;;;;;5293459;26;20005;-60
2024/04/17 09:06:58;;;;;;;0.28;0.10;;;;;;;;;;5293710;26;20009;-58
2024/04/17 09:09:25;;;;;;;0.10;0.10;;;;;;;;;;5306712;26;20008;-60
2024/04/17 09:11:52;;;;;;;0.20;0.20;;;;;;;;;;5290404;26;20009;-60
2024/04/17 09:14:19;;;;;;;0.15;0.15;;;;;;;;;;5293377;26;19998;-59
2024/04/17 09:16:46;;;;;;;0.65;0.20;;;;;;;;;;5276027;26;20014;-61
2024/04/17 09:19:13;;;;;;;0.10;0.10;;;;;;;;;;5285535;26;20638;-58
2024/04/17 09:21:40;;;;;;;0.50;0.50;;;;;;;;;;5290416;26;20014;-63
2024/04/17 09:24:07;;;;;;;0.20;0.17;;;;;;;;;;5291819;26;20130;-59
2024/04/17 09:26:33;;;;;;;13.52;0.68;;;;;;;;;;5293064;26;20020;-60
2024/04/17 09:29:00;;;;;;;0.20;0.20;;;;;;;;;;5288991;26;20002;-60
2024/04/17 09:31:26;;;;;;;0.20;0.20;;;;;;;;;;5305176;26;19998;-61
2024/04/17 09:33:53;;;;;;;0.22;0.22;;;;;;;;;;5292810;26;20029;-61
2024/04/17 09:36:20;;;;;;;1.75;0.22;;;;;;;;;;5291781;26;20087;-59
2024/04/17 09:38:46;;;;;;;0.50;0.20;;;;;;;;;;5291569;26;20010;-59
2024/04/17 09:41:13;;;;;;;0.10;0.10;;;;;;;;;;5290365;26;22297;-61
2024/04/17 09:43:42;;;;;;;0.10;0.10;;;;;;;;;;5282088;26;20079;-61
2024/04/17 09:46:10;;;;;;;0.20;0.20;;;;;;;;;;5292845;26;20005;-63
2024/04/17 09:48:58;;;;;;;0.30;0.20;;;;;;;;;;5321032;26;20462;-58
2024/04/17 09:51:26;;;;;;;2.75;0.10;;;;;;;;;;5290403;26;20006;-61
2024/04/17 09:53:57;;;;;;;0.00;0.00;;;;;;;;;;5312700;26;20009;-62
2024/04/17 09:56:45;;;;;;;0.22;0.17;;;;;;;;;;5286620;27;20125;-58
2024/04/17 09:59:13;;;;;;;0.10;0.10;;;;;;;;;;5289462;26;20002;-62
2024/04/17 10:01:41;;;;;;;0.10;0.10;;;;;;;;;;5288842;27;20065;-58
2024/04/17 10:04:09;;;;;;;0.10;0.10;;;;;;;;;;5290034;26;20100;-59
2024/04/17 10:06:37;;;;;;;0.30;0.20;;;;;;;;;;5288110;27;20010;-61
2024/04/17 10:09:05;;;;;;;0.20;0.20;;;;;;;;;;5289730;26;20017;-59
2024/04/17 10:11:34;;;;;;;0.20;0.20;;;;;;;;;;5280419;27;20002;-61
2024/04/17 10:14:03;;;;;;;0.10;0.10;;;;;;;;;;5246744;27;20051;-61
2024/04/17 10:16:30;;;;;;;0.10;0.10;;;;;;;;;;5290037;27;20954;-59
2024/04/17 10:18:57;;;;;;;1.55;0.28;;;;;;;;;;5293193;26;20024;-58
2024/04/17 10:21:26;;;;;;;0.30;0.30;;;;;;;;;;5308623;26;20620;-57
2024/04/17 10:24:02;;;;;;;0.20;0.20;;;;;;;;;;5305207;26;20020;-61
2024/04/17 10:26:49;;;;;;;0.30;0.20;;;;;;;;;;5289133;26;20653;-62
2024/04/17 10:29:23;;;;;;;0.13;0.10;;;;;;;;;;5289106;26;20010;-62
2024/04/17 10:32:03;;;;;;;0.20;0.20;;;;;;;;;;5318814;26;20021;-57
2024/04/17 10:34:48;;;;;;;0.50;0.40;;;;;;;;;;5308636;26;20005;-59
2024/04/17 10:37:16;;;;;;;0.47;0.30;;;;;;;;;;5291635;26;20001;-59
2024/04/17 10:39:43;;;;;;;0.20;0.20;;;;;;;;;;5289560;26;20021;-59
2024/04/17 10:42:10;;;;;;;0.30;0.20;;;;;;;;;;5290564;26;20415;-62
2024/04/17 10:44:44;;;;;;;1.35;0.13;;;;;;;;;;5288638;26;20477;-59
2024/04/17 10:47:19;;;;;;;1.67;0.30;;;;;;;;;;5293582;26;20699;-62
2024/04/17 10:49:54;;;;;;;0.17;0.17;;;;;;;;;;5293713;26;20049;-60
2024/04/17 10:52:22;;;;;;;0.30;0.20;;;;;;;;;;5292658;26;20006;-61
2024/04/17 10:54:49;;;;;;;0.17;0.17;;;;;;;;;;5294817;26;20478;-58
2024/04/17 10:57:17;;;;;;;0.10;0.10;;;;;;;;;;5293114;26;20016;-60
2024/04/17 10:59:50;;;;;;;1.15;0.30;;;;;;;;;;5293432;26;19997;-60
2024/04/17 11:02:18;;;;;;;0.10;0.10;;;;;;;;;;5292871;26;20009;-60
2024/04/17 11:04:45;;;;;;;0.30;0.30;;;;;;;;;;5293225;26;20006;-60
2024/04/17 11:07:11;;;;;;;0.10;0.10;;;;;;;;;;5293313;26;19998;-60
2024/04/17 11:09:48;;;;;;;0.40;0.30;;;;;;;;;;5292210;26;20002;-60
2024/04/17 11:12:18;;;;;;;0.77;0.20;;;;;;;;;;5293050;26;20013;-60
2024/04/17 11:14:45;;;;;;;0.28;0.17;;;;;;;;;;5292595;26;20509;-61
2024/04/17 11:17:12;;;;;;;1.33;0.20;;;;;;;;;;5303302;26;20864;-60
2024/04/17 11:19:39;;;;;;;0.08;0.08;;;;;;;;;;5294046;26;20002;-61
2024/04/17 11:22:09;;;;;;;1.08;0.30;;;;;;;;;;5292392;26;20030;-59
2024/04/17 11:24:36;;;;;;;0.50;0.50;;;;;;;;;;5290954;26;20367;-60
2024/04/17 11:27:11;;;;;;;0.47;0.25;;;;;;;;;;5291621;26;20002;-59
2024/04/17 11:29:45;;;;;;;0.20;0.20;;;;;;;;;;5291175;26;20009;-60
2024/04/17 11:32:12;;;;;;;0.10;0.10;;;;;;;;;;5290147;26;20002;-60
2024/04/17 11:34:38;;;;;;;0.70;0.43;;;;;;;;;;5291866;26;20012;-57
2024/04/17 11:37:06;;;;;;;0.95;0.32;;;;;;;;;;5291379;26;20013;-58
2024/04/17 11:39:33;;;;;;;0.20;0.20;;;;;;;;;;5291948;26;20005;-60
2024/04/17 11:42:00;;;;;;;1.83;0.20;;;;;;;;;;5288952;26;20009;-59
2024/04/17 11:44:37;;;;;;;0.30;0.28;;;;;;;;;;5290824;26;20014;-60
2024/04/17 11:47:03;;;;;;;0.85;0.30;;;;;;;;;;5292375;26;20012;-58
2024/04/17 11:49:30;;;;;;;0.28;0.25;;;;;;;;;;5291910;26;20038;-60
2024/04/17 11:51:57;;;;;;;0.22;0.10;;;;;;;;;;5291482;26;20002;-59
2024/04/17 11:54:23;;;;;;;0.13;0.10;;;;;;;;;;5289839;26;20017;-61
2024/04/17 11:56:50;;;;;;;0.25;0.15;;;;;;;;;;5289160;26;20016;-61
2024/04/17 11:59:17;;;;;;;0.20;0.13;;;;;;;;;;5291671;26;20006;-58
2024/04/17 12:01:44;;;;;;;0.65;0.22;;;;;;;;;;5291151;26;20018;-58
2024/04/17 12:04:10;;;;;;;0.10;0.10;;;;;;;;;;5285231;26;20338;-57
2024/04/17 12:06:37;;;;;;;0.20;0.20;;;;;;;;;;5290151;26;20029;-57
2024/04/17 12:09:04;;;;;;;0.17;0.17;;;;;;;;;;5292068;26;20016;-60
2024/04/17 12:11:31;;;;;;;0.10;0.10;;;;;;;;;;5291691;26;20454;-59
2024/04/17 12:13:57;;;;;;;0.20;0.20;;;;;;;;;;5292095;26;20006;-60
2024/04/17 12:16:24;;;;;;;0.40;0.30;;;;;;;;;;5278616;26;20212;-58
2024/04/17 12:18:53;;;;;;;1.27;0.20;;;;;;;;;;5250598;27;20005;-57
2024/04/17 12:21:19;;;;;;;4.18;0.30;;;;;;;;;;5289381;26;20380;-62
2024/04/17 12:23:51;;;;;;;0.10;0.10;;;;;;;;;;5290350;26;20010;-59
2024/04/17 12:29:02;;;;;;;;;;;;;;;;;;5288711;26;20008;-59
2024/04/17 12:31:29;;;;;;;0.10;0.10;;;;;;;;;;5290389;26;19934;-59
2024/04/17 12:33:55;;;;;;;0.30;0.20;;;;;;;;;;5290966;26;20012;-58
2024/04/17 12:36:22;;;;;;;0.25;0.25;;;;;;;;;;5289534;26;20038;-57
2024/04/17 12:38:49;;;;;;;0.10;0.10;;;;;;;;;;5289326;26;20005;-59
2024/04/17 12:41:15;;;;;;;0.03;0.03;;;;;;;;;;5289995;26;20033;-56
2024/04/17 12:43:42;;;;;;;0.35;0.15;;;;;;;;;;5289454;26;20026;-59
2024/04/17 12:46:08;;;;;;;0.28;0.20;;;;;;;;;;5289634;26;20009;-58
2024/04/17 12:48:35;;;;;;;0.28;0.20;;;;;;;;;;5299669;26;20009;-59
2024/04/17 12:51:02;;;;;;;1.08;0.10;;;;;;;;;;5289381;26;20010;-58
2024/04/17 12:53:29;;;;;;;0.30;0.20;;;;;;;;;;5287852;26;20044;-58
2024/04/17 12:55:57;;;;;;;0.22;0.15;;;;;;;;;;5289163;26;20002;-53
2024/04/17 12:58:24;;;;;;;0.47;0.40;;;;;;;;;;5290384;26;20044;-55
2024/04/17 13:00:54;;;;;;;0.10;0.10;;;;;;;;;;5290455;26;20001;-57
2024/04/17 13:03:20;;;;;;;0.13;0.13;;;;;;;;;;5288976;26;20012;-58
2024/04/17 13:06:07;;;;;;;0.40;0.10;;;;;;;;;;5285757;26;20010;-57
2024/04/17 13:08:33;;;;;;;0.57;0.10;;;;;;;;;;5283955;26;20153;-59
2024/04/17 13:11:03;;;;;;;0.30;0.13;;;;;;;;;;5286477;26;21181;-56
2024/04/17 13:13:29;;;;;;;0.80;0.20;;;;;;;;;;5285512;26;20669;-54
2024/04/17 13:15:57;;;;;;;0.40;0.40;;;;;;;;;;5284442;26;20999;-58
2024/04/17 13:18:24;;;;;;;0.20;0.20;;;;;;;;;;5276545;26;20010;-60
2024/04/17 13:20:56;;;;;;;0.38;0.30;;;;;;;;;;5287084;26;20021;-56
2024/04/17 13:23:24;;;;;;;0.22;0.22;;;;;;;;;;5283255;26;20009;-54
2024/04/17 13:26:01;;;;;;;0.75;0.38;;;;;;;;;;5284876;26;20001;-59
2024/04/17 13:28:33;;;;;;;0.40;0.10;;;;;;;;;;5284931;26;20106;-59
2024/04/17 13:31:05;;;;;;;0.35;0.20;;;;;;;;;;5285367;26;20020;-57
2024/04/17 13:33:32;;;;;;;0.57;0.30;;;;;;;;;;5284873;26;20008;-58
2024/04/17 13:36:01;;;;;;;3.97;0.35;;;;;;;;;;5285678;26;20041;-56
2024/04/17 13:38:29;;;;;;;0.50;0.32;;;;;;;;;;5283395;26;20024;-58
2024/04/17 13:40:59;;;;;;;0.30;0.30;;;;;;;;;;5285578;26;20019;-59
2024/04/17 13:43:30;;;;;;;0.35;0.35;;;;;;;;;;5286865;26;20440;-57
2024/04/17 13:45:58;;;;;;;1.63;0.30;;;;;;;;;;5281345;27;20091;-60
2024/04/17 13:48:25;;;;;;;0.20;0.20;;;;;;;;;;5288285;26;19998;-56
2024/04/17 13:50:58;;;;;;;0.30;0.30;;;;;;;;;;5289453;26;20459;-58
2024/04/17 13:53:25;;;;;;;0.03;0.03;;;;;;;;;;5288090;26;20002;-56
2024/04/17 13:55:52;;;;;;;0.40;0.40;;;;;;;;;;5289115;26;20425;-58
2024/04/17 13:58:18;;;;;;;0.15;0.15;;;;;;;;;;5289637;26;20020;-59
2024/04/17 14:00:45;;;;;;;0.20;0.20;;;;;;;;;;5289024;26;19997;-59
2024/04/17 14:03:11;;;;;;;0.20;0.20;;;;;;;;;;5290070;26;20002;-59
2024/04/17 14:05:39;;;;;;;0.32;0.25;;;;;;;;;;5286710;26;20349;-58
2024/04/17 14:08:06;;;;;;;0.77;0.40;;;;;;;;;;5289934;26;20001;-56
2024/04/17 14:10:33;;;;;;;0.70;0.20;;;;;;;;;;5288653;26;20001;-63
2024/04/17 14:13:00;;;;;;;1.08;0.30;;;;;;;;;;5289924;26;20100;-57
2024/04/17 14:15:27;;;;;;;1.17;0.30;;;;;;;;;;5287658;26;19997;-59
2024/04/17 14:17:54;;;;;;;0.52;0.40;;;;;;;;;;5275057;26;20014;-61
2024/04/17 14:20:21;;;;;;;0.40;0.40;;;;;;;;;;5291359;26;21041;-57
2024/04/17 14:22:48;;;;;;;0.43;0.35;;;;;;;;;;5291730;26;20024;-60
2024/04/17 14:25:14;;;;;;;0.25;0.25;;;;;;;;;;5288844;26;20542;-59
2024/04/17 14:27:41;;;;;;;0.70;0.30;;;;;;;;;;5289493;26;20017;-59
2024/04/17 14:30:09;;;;;;;0.13;0.13;;;;;;;;;;5293114;26;20029;-60
2024/04/17 14:32:36;;;;;;;0.30;0.30;;;;;;;;;;5286015;26;20034;-61
2024/04/17 14:35:03;;;;;;;1.55;0.20;;;;;;;;;;5291740;26;20464;-58
2024/04/17 14:37:29;;;;;;;3.50;0.30;;;;;;;;;;5290843;26;20009;-59
2024/04/17 14:39:57;;;;;;;1.08;0.20;;;;;;;;;;5290620;26;20016;-61
2024/04/17 14:42:23;;;;;;;0.63;0.20;;;;;;;;;;5288327;26;20020;-62
2024/04/17 14:44:50;;;;;;;0.30;0.30;;;;;;;;;;5292539;26;20006;-61
2024/04/17 14:47:16;;;;;;;0.20;0.20;;;;;;;;;;5292114;26;19997;-58
2024/04/17 14:49:46;;;;;;;1.35;0.30;;;;;;;;;;5291182;26;20013;-59